LKLT weather

Letňany Airport
Letňany, Prague (capital city), Czechia

Public forecast

Using degrees Celsius for public forecast. Weather courtesy of forecast.io.

Closest aviation weather report (METAR) to Letňany Airport

Closest report is Kbely Air Base, 0.9 nm (1.7 km) SE. Retrieved 2019/10/19 11:00 UTC (34 minutes ago):

LKKB 191100Z 05004KT 350V120 CAVOK 14/10 Q1012 NOSIG

Closest aviation forecast (TAF) to Letňany Airport

Closest forecast is Kbely Air Base, 0.9 nm (1.7 km) SE. Retrieved 2019/10/19 06:00 UTC (6 hours ago):

TAF LKKB 190500Z 1906/2006 15004KT CAVOK BECMG 1906/1908 12006KT PROB30 TEMPO 1906/1907 4000 MIFG BR SCT010 BECMG 1911/1913 17006KT BECMG 1923/2001 14004KT